createdAt,value
2023-05-21T00:00:23.734Z,100354.31
2023-05-21T00:02:52.580Z,100355.34
2023-05-21T00:05:21.550Z,100358.22
2023-05-21T00:07:53.369Z,100363.84
2023-05-21T00:10:22.016Z,100364.88
2023-05-21T00:12:50.080Z,100367.75
2023-05-21T00:15:18.268Z,100366.03
2023-05-21T00:17:47.734Z,100363.47
2023-05-21T00:20:16.999Z,100368.91
2023-05-21T00:22:45.309Z,100367.22
2023-05-21T00:25:13.540Z,100361.09
2023-05-21T00:27:41.672Z,100368.41
2023-05-21T00:30:10.326Z,100369.41
2023-05-21T00:32:38.809Z,100365.84
2023-05-21T00:35:09.733Z,100366.88
2023-05-21T00:37:38.167Z,100360.72
2023-05-21T00:40:08.926Z,100366.16
2023-05-21T00:42:39.921Z,100357.34
2023-05-21T00:45:11.218Z,100364.63
2023-05-21T00:47:39.749Z,100363.78
2023-05-21T00:50:10.643Z,100354.94
2023-05-21T00:52:42.230Z,100353.25
2023-05-21T00:55:11.576Z,100361.41
2023-05-21T00:57:41.291Z,100369.72
2023-05-21T01:00:10.854Z,100363.44
2023-05-21T01:02:39.622Z,100365.44
2023-05-21T01:05:09.933Z,100369.19
2023-05-21T01:07:41.050Z,100356.63
2023-05-21T01:10:15.870Z,100346.78
2023-05-21T01:12:45.444Z,100352.38
2023-05-21T01:15:14.217Z,100347.97
2023-05-21T01:17:42.926Z,100347.13
2023-05-21T01:20:13.479Z,100348.13
2023-05-21T01:22:44.690Z,100350.00
2023-05-21T01:25:15.104Z,100347.41
2023-05-21T01:27:43.224Z,100345.72
2023-05-21T01:30:12.565Z,100345.00
2023-05-21T01:32:49.171Z,100348.75
2023-05-21T01:35:22.873Z,100348.91
2023-05-21T01:37:59.043Z,100346.19
2023-05-21T01:40:35.881Z,100349.94
2023-05-21T01:43:06.765Z,100350.94
2023-05-21T01:45:37.848Z,100346.53
2023-05-21T01:48:08.315Z,100347.53
2023-05-21T01:50:39.016Z,100348.53
2023-05-21T01:53:07.133Z,100348.53
2023-05-21T01:55:39.653Z,100351.41
2023-05-21T01:58:08.172Z,100348.88
2023-05-21T02:00:37.491Z,100347.16
2023-05-21T02:03:05.724Z,100340.03
2023-05-21T02:05:33.964Z,100350.06
2023-05-21T02:08:05.495Z,100342.09
2023-05-21T02:10:33.583Z,100341.22
2023-05-21T02:13:03.398Z,100344.94
2023-05-21T02:15:35.121Z,100329.66
2023-05-21T02:18:03.962Z,100335.25
2023-05-21T02:20:35.151Z,100341.69
2023-05-21T02:23:03.274Z,100343.56
2023-05-21T02:25:31.586Z,100356.28
2023-05-21T02:27:59.717Z,100352.72
2023-05-21T02:30:29.331Z,100343.91
2023-05-21T02:32:59.020Z,100332.19
2023-05-21T02:35:28.621Z,100335.94
2023-05-21T02:37:59.214Z,100335.03
2023-05-21T02:40:27.560Z,100337.06
2023-05-21T02:42:55.724Z,100344.38
2023-05-21T02:45:26.578Z,100339.09
2023-05-21T02:47:56.159Z,100342.84
2023-05-21T02:50:24.580Z,100341.16
2023-05-21T02:52:52.658Z,100343.00
2023-05-21T02:55:20.955Z,100345.88
2023-05-21T02:57:56.276Z,100351.31
2023-05-21T03:00:24.504Z,100339.75
2023-05-21T03:02:52.819Z,100343.47
2023-05-21T03:05:22.907Z,100345.34
2023-05-21T03:07:51.086Z,100341.78
2023-05-21T03:10:19.160Z,100334.66
2023-05-21T03:12:47.255Z,100329.38
2023-05-21T03:15:15.801Z,100331.25
2023-05-21T03:17:45.050Z,100325.81
2023-05-21T03:20:19.013Z,100334.13
2023-05-21T03:22:49.873Z,100330.56
2023-05-21T03:25:18.093Z,100337.00
2023-05-21T03:27:46.228Z,100330.88
2023-05-21T03:30:14.750Z,100336.31
2023-05-21T03:32:45.156Z,100331.88
2023-05-21T03:35:13.603Z,100331.03
2023-05-21T03:37:41.692Z,100335.63
2023-05-21T03:40:12.156Z,100350.19
2023-05-21T03:42:40.238Z,100350.19
2023-05-21T03:45:09.137Z,100353.94
2023-05-21T03:47:37.224Z,100349.53
2023-05-21T03:50:07.687Z,100346.81
2023-05-21T03:52:35.728Z,100350.53
2023-05-21T03:55:03.784Z,100345.09
2023-05-21T03:57:34.255Z,100348.84
2023-05-21T04:00:02.647Z,100354.41
2023-05-21T04:02:30.926Z,100353.53
2023-05-21T04:04:59.104Z,100357.28
2023-05-21T04:07:27.310Z,100358.97
2023-05-21T04:09:55.476Z,100356.25
2023-05-21T04:12:23.654Z,100360.00
2023-05-21T04:14:54.337Z,100355.41
2023-05-21T04:17:22.538Z,100354.56
2023-05-21T04:19:50.729Z,100355.56
2023-05-21T04:22:18.807Z,100364.56
2023-05-21T04:24:48.889Z,100358.28
2023-05-21T04:27:17.112Z,100362.88
2023-05-21T04:29:45.230Z,100364.72
2023-05-21T04:32:15.349Z,100362.03
2023-05-21T04:34:43.501Z,100359.31
2023-05-21T04:37:12.122Z,100363.03
2023-05-21T04:39:41.097Z,100364.72
2023-05-21T04:42:10.892Z,100360.31
2023-05-21T04:44:42.467Z,100371.19
2023-05-21T04:47:12.361Z,100361.16
2023-05-21T04:49:41.855Z,100364.91
2023-05-21T04:52:09.987Z,100362.19
2023-05-21T04:54:39.032Z,100354.03
2023-05-21T04:57:07.733Z,100350.47
2023-05-21T04:59:37.035Z,100348.63
2023-05-21T05:02:05.125Z,100354.03
2023-05-21T05:04:33.478Z,100347.78
2023-05-21T05:07:02.951Z,100348.63
2023-05-21T05:09:33.732Z,100350.47
2023-05-21T05:12:01.943Z,100347.78
2023-05-21T05:14:30.050Z,100345.06
2023-05-21T05:17:00.652Z,100346.91
2023-05-21T05:19:29.307Z,100347.78
2023-05-21T05:21:57.649Z,100345.06
2023-05-21T05:24:27.272Z,100347.78
2023-05-21T05:26:55.416Z,100347.78
2023-05-21T05:29:23.525Z,100342.34
2023-05-21T05:31:51.643Z,100348.78
2023-05-21T05:34:20.013Z,100344.19
2023-05-21T05:36:48.162Z,100346.06
2023-05-21T05:39:16.220Z,100347.78
2023-05-21T05:41:45.768Z,100345.06
2023-05-21T05:44:13.885Z,100344.19
2023-05-21T05:46:42.068Z,100341.66
2023-05-21T05:49:13.718Z,100347.78
2023-05-21T05:51:42.091Z,100342.34
2023-05-21T05:54:10.219Z,100336.91
2023-05-21T05:56:38.334Z,100344.03
2023-05-21T05:59:07.801Z,100339.63
2023-05-21T06:01:35.964Z,100326.91
2023-05-21T06:04:06.764Z,100336.75
2023-05-21T06:06:34.956Z,100338.63
2023-05-21T06:09:02.997Z,100333.19
2023-05-21T06:11:31.173Z,100332.34
2023-05-21T06:14:00.940Z,100327.75
2023-05-21T06:16:31.695Z,100334.88
2023-05-21T06:18:59.981Z,100317.75
2023-05-21T06:21:34.704Z,100319.44
2023-05-21T06:24:02.821Z,100319.44
2023-05-21T06:26:30.841Z,100308.59
2023-05-21T06:28:59.230Z,100311.13
2023-05-21T06:31:28.015Z,100308.44
2023-05-21T06:33:57.599Z,100305.72
2023-05-21T06:36:29.673Z,100306.72
2023-05-21T06:38:57.940Z,100301.13
2023-05-21T06:41:26.431Z,100297.41
2023-05-21T06:43:54.962Z,100303.72
2023-05-21T06:46:23.208Z,100299.28
2023-05-21T06:48:51.322Z,100299.13
2023-05-21T06:51:20.845Z,100302.69
2023-05-21T06:53:49.145Z,100300.84
2023-05-21T06:56:17.237Z,100295.41
2023-05-21T06:58:45.407Z,100294.38
2023-05-21T07:01:13.623Z,100287.09
2023-05-21T07:03:41.776Z,100289.81
2023-05-21T07:06:09.912Z,100285.22
2023-05-21T07:08:39.401Z,100289.66
2023-05-21T07:11:07.922Z,100286.94
2023-05-21T07:13:36.586Z,100282.34
2023-05-21T07:16:04.804Z,100287.78
2023-05-21T07:18:33.060Z,100287.63
2023-05-21T07:21:01.184Z,100283.03
2023-05-21T07:23:29.509Z,100285.59
2023-05-21T07:26:04.141Z,100283.72
2023-05-21T07:28:32.204Z,100281.00
2023-05-21T07:31:00.323Z,100277.31
2023-05-21T07:33:28.860Z,100281.72
2023-05-21T07:35:56.957Z,100277.97
2023-05-21T07:38:25.344Z,100275.28
2023-05-21T07:40:56.831Z,100277.97
2023-05-21T07:43:26.390Z,100287.81
2023-05-21T07:46:04.297Z,100286.81
2023-05-21T07:48:35.710Z,100291.22
2023-05-21T07:51:04.977Z,100287.50
2023-05-21T07:53:33.381Z,100282.06
2023-05-21T07:56:08.977Z,100275.63
2023-05-21T07:58:39.462Z,100276.47
2023-05-21T08:01:07.680Z,100277.31
2023-05-21T08:03:35.952Z,100278.03
2023-05-21T08:06:04.567Z,100278.88
2023-05-21T08:08:33.058Z,100279.72
2023-05-21T08:11:01.937Z,100270.56
2023-05-21T08:15:59.359Z,100274.81
2023-05-21T08:18:27.481Z,100272.94
2023-05-21T08:20:55.819Z,100276.34
2023-05-21T08:23:24.241Z,100278.91
2023-05-21T08:25:53.620Z,100278.91
2023-05-21T08:28:23.060Z,100281.47
2023-05-21T08:30:51.245Z,100276.53
2023-05-21T08:33:23.095Z,100286.22
2023-05-21T08:35:51.557Z,100278.44
2023-05-21T08:38:19.627Z,100281.81
2023-05-21T08:40:48.456Z,100282.50
2023-05-21T08:43:17.924Z,100281.34
2023-05-21T08:45:48.779Z,100274.72
2023-05-21T08:48:18.454Z,100278.97
2023-05-21T08:50:48.548Z,100284.94
2023-05-21T08:53:27.251Z,100282.94
2023-05-21T08:55:57.317Z,100285.47
2023-05-21T08:58:25.878Z,100282.59
2023-05-21T09:00:55.438Z,100275.13
2023-05-21T09:03:24.323Z,100283.94
2023-05-21T09:05:55.840Z,100276.50
2023-05-21T09:08:28.931Z,100270.06
2023-05-21T09:10:57.127Z,100271.59
2023-05-21T09:13:28.311Z,100268.69
2023-05-21T09:15:56.635Z,100271.25
2023-05-21T09:18:24.712Z,100275.50
2023-05-21T09:20:56.541Z,100271.78
2023-05-21T09:23:24.752Z,100274.31
2023-05-21T09:25:54.076Z,100266.00
2023-05-21T09:28:22.263Z,100269.38
2023-05-21T09:30:54.177Z,100261.06
2023-05-21T09:33:30.656Z,100267.34
2023-05-21T09:36:00.333Z,100265.16
2023-05-21T09:38:29.528Z,100270.41
2023-05-21T09:40:57.722Z,100263.97
2023-05-21T09:43:26.453Z,100268.22
2023-05-21T09:45:56.128Z,100266.34
2023-05-21T09:48:35.574Z,100269.75
2023-05-21T09:51:12.793Z,100266.03
2023-05-21T09:53:55.063Z,100261.25
2023-05-21T09:56:24.827Z,100252.09
2023-05-21T09:58:54.895Z,100259.88
2023-05-21T10:01:23.320Z,100259.88
2023-05-21T10:03:57.211Z,100254.28
2023-05-21T10:06:29.331Z,100249.53
2023-05-21T10:08:58.541Z,100257.53
2023-05-21T10:11:31.977Z,100251.06
2023-05-21T10:14:06.041Z,100249.03
2023-05-21T10:16:37.521Z,100244.25
2023-05-21T10:19:10.911Z,100235.91
2023-05-21T10:21:42.073Z,100241.88
2023-05-21T10:24:10.569Z,100240.03
2023-05-21T10:26:39.640Z,100242.38
2023-05-21T10:29:09.237Z,100230.31
2023-05-21T10:31:39.948Z,100239.16
2023-05-21T10:34:08.639Z,100236.28
2023-05-21T10:36:39.063Z,100232.34
2023-05-21T10:39:10.866Z,100233.06
2023-05-21T10:42:00.321Z,100228.31
2023-05-21T10:44:40.053Z,100230.69
2023-05-21T10:47:41.223Z,100228.63
2023-05-21T10:50:25.691Z,100229.13
2023-05-21T10:53:10.897Z,100222.50
2023-05-21T10:55:53.254Z,100215.03
2023-05-21T10:58:42.892Z,100211.94
2023-05-21T11:01:12.188Z,100216.03
2023-05-21T11:03:40.668Z,100219.44
2023-05-21T11:06:08.840Z,100219.06
2023-05-21T11:08:38.961Z,100212.41
2023-05-21T11:11:09.040Z,100214.63
2023-05-21T11:13:49.313Z,100218.03
2023-05-21T11:16:19.313Z,100214.94
2023-05-21T11:19:03.504Z,100224.47
2023-05-21T11:21:34.866Z,100220.72
2023-05-21T11:24:06.473Z,100232.09
2023-05-21T11:27:04.874Z,100221.72
2023-05-21T11:29:44.375Z,100218.28
2023-05-21T11:32:15.317Z,100218.63
2023-05-21T11:34:46.068Z,100219.94
2023-05-21T11:37:29.997Z,100213.84
2023-05-21T11:39:59.812Z,100215.16
2023-05-21T11:42:34.200Z,100207.31
2023-05-21T11:45:04.113Z,100210.00
2023-05-21T11:47:33.279Z,100213.88
2023-05-21T11:50:02.955Z,100216.09
2023-05-21T11:52:31.916Z,100213.66
2023-05-21T11:55:01.630Z,100209.56
2023-05-21T11:57:31.936Z,100214.28
2023-05-21T12:00:12.647Z,100198.25
2023-05-21T12:02:45.973Z,100203.13
2023-05-21T12:05:18.017Z,100199.03
2023-05-21T12:07:51.106Z,100200.19
2023-05-21T12:10:22.745Z,100187.06
2023-05-21T12:12:56.255Z,100186.50
2023-05-21T12:15:28.146Z,100182.41
2023-05-21T12:17:57.246Z,100175.56
2023-05-21T12:20:29.037Z,100178.59
2023-05-21T12:22:59.261Z,100180.75
2023-05-21T12:25:32.077Z,100177.50
2023-05-21T12:28:01.408Z,100178.81
2023-05-21T12:30:31.164Z,100171.94
2023-05-21T12:33:03.226Z,100166.97
2023-05-21T12:35:31.861Z,100169.31
2023-05-21T12:38:03.093Z,100170.63
2023-05-21T12:40:39.625Z,100158.53
2023-05-21T12:43:08.673Z,100161.53
2023-05-21T12:45:41.442Z,100159.09
2023-05-21T12:48:09.589Z,100158.72
2023-05-21T12:50:40.542Z,100158.34
2023-05-21T12:53:12.321Z,100154.22
2023-05-21T12:55:41.324Z,100153.84
2023-05-21T12:58:09.616Z,100153.13
2023-05-21T13:00:38.672Z,100150.84
2023-05-21T13:03:09.098Z,100143.16
2023-05-21T13:05:41.581Z,100143.63
2023-05-21T13:08:14.214Z,100142.88
2023-05-21T13:10:42.473Z,100132.41
2023-05-21T13:13:10.733Z,100130.97
2023-05-21T13:15:38.937Z,100131.28
2023-05-21T13:18:08.550Z,100132.56
2023-05-21T13:20:37.933Z,100124.66
2023-05-21T13:23:07.691Z,100128.50
2023-05-21T13:25:37.558Z,100123.53
2023-05-21T13:28:08.630Z,100120.41
2023-05-21T13:30:37.360Z,100117.66
2023-05-21T13:33:08.665Z,100118.69
2023-05-21T13:35:36.836Z,100121.44
2023-05-21T13:38:06.996Z,100106.09
2023-05-21T13:40:37.389Z,100108.19
2023-05-21T13:43:06.909Z,100113.81
2023-05-21T13:45:35.055Z,100106.66
2023-05-21T13:48:03.427Z,100110.44
2023-05-21T13:50:33.017Z,100110.44
2023-05-21T13:53:01.101Z,100092.16
2023-05-21T13:55:31.941Z,100111.28
2023-05-21T13:58:00.122Z,100096.56
2023-05-21T14:00:28.448Z,100102.03
2023-05-21T14:02:56.820Z,100103.75
2023-05-21T14:05:25.009Z,100103.75
2023-05-21T14:07:54.653Z,100094.88
2023-05-21T14:10:25.684Z,100103.94
2023-05-21T14:12:55.838Z,100108.34
2023-05-21T14:15:27.695Z,100105.44
2023-05-21T14:17:55.974Z,100097.06
2023-05-21T14:20:24.207Z,100102.53
2023-05-21T14:22:52.408Z,100094.97
2023-05-21T14:25:22.045Z,100092.88
2023-05-21T14:27:51.758Z,100089.97
2023-05-21T14:30:19.900Z,100091.66
2023-05-21T14:32:48.040Z,100083.66
2023-05-21T14:35:16.277Z,100087.91
2023-05-21T14:37:44.445Z,100081.41
2023-05-21T14:40:13.489Z,100083.94
2023-05-21T14:42:42.929Z,100075.53
2023-05-21T14:45:18.996Z,100077.22
2023-05-21T14:47:48.728Z,100071.56
2023-05-21T14:50:18.674Z,100083.34
2023-05-21T14:52:46.854Z,100070.34
2023-05-21T14:55:18.673Z,100079.19
2023-05-21T14:57:51.409Z,100089.13
2023-05-21T15:00:19.644Z,100079.56
2023-05-21T15:02:48.038Z,100080.59
2023-05-21T15:05:16.304Z,100074.50
2023-05-21T15:07:44.666Z,100072.81
2023-05-21T15:10:13.080Z,100076.19
2023-05-21T15:12:41.745Z,100069.69
2023-05-21T15:15:13.532Z,100065.91
2023-05-21T15:17:41.762Z,100070.34
2023-05-21T15:20:10.670Z,100065.75
2023-05-21T15:22:39.085Z,100069.31
2023-05-21T15:25:08.015Z,100075.44
2023-05-21T15:27:36.551Z,100068.28
2023-05-21T15:30:05.104Z,100064.53
2023-05-21T15:32:34.590Z,100064.31
2023-05-21T15:35:02.842Z,100067.91
2023-05-21T15:37:33.028Z,100062.44
2023-05-21T15:40:01.314Z,100064.13
2023-05-21T15:42:31.827Z,100061.41
2023-05-21T15:45:00.174Z,100061.19
2023-05-21T15:47:28.455Z,100063.72
2023-05-21T15:49:58.890Z,100069.19
2023-05-21T15:52:27.125Z,100068.19
2023-05-21T15:54:56.157Z,100070.91
2023-05-21T15:57:24.343Z,100067.13
2023-05-21T15:59:52.675Z,100078.91
2023-05-21T16:02:21.695Z,100074.28
2023-05-21T16:04:51.777Z,100078.91
2023-05-21T16:07:21.427Z,100074.50
2023-05-21T16:09:49.541Z,100081.63
2023-05-21T16:12:17.771Z,100076.19
2023-05-21T16:14:46.062Z,100074.28
2023-05-21T16:17:14.206Z,100078.72
2023-05-21T16:19:42.554Z,100075.97
2023-05-21T16:22:11.175Z,100075.97
2023-05-21T16:24:40.734Z,100077.88
2023-05-21T16:27:08.855Z,100075.97
2023-05-21T16:29:41.139Z,100081.44
2023-05-21T16:32:09.758Z,100075.97
2023-05-21T16:34:38.033Z,100082.28
2023-05-21T16:37:08.630Z,100082.47
2023-05-21T16:39:36.892Z,100086.06
2023-05-21T16:42:13.157Z,100089.00
2023-05-21T16:44:57.981Z,100083.53
2023-05-21T16:47:34.208Z,100083.53
2023-05-21T16:50:05.694Z,100084.56
2023-05-21T16:52:36.365Z,100087.31
2023-05-21T16:55:04.823Z,100091.03
2023-05-21T16:57:34.307Z,100085.59
2023-05-21T17:00:03.925Z,100085.59
2023-05-21T17:02:32.304Z,100094.81
2023-05-21T17:05:00.488Z,100092.28
2023-05-21T17:07:28.684Z,100095.88
2023-05-21T17:09:56.826Z,100089.75
2023-05-21T17:12:25.232Z,100095.22
2023-05-21T17:14:54.811Z,100099.00
2023-05-21T17:17:23.011Z,100100.03
2023-05-21T17:19:51.100Z,100099.34
2023-05-21T17:22:19.273Z,100093.91
2023-05-21T17:24:47.566Z,100094.94
2023-05-21T17:27:17.413Z,100097.00
2023-05-21T17:29:45.958Z,100091.72
2023-05-21T17:32:17.060Z,100093.81
2023-05-21T17:34:53.841Z,100088.56
2023-05-21T17:37:22.034Z,100084.13
2023-05-21T17:39:50.212Z,100089.78
2023-05-21T17:42:18.908Z,100088.06
2023-05-21T17:44:47.165Z,100096.47
2023-05-21T17:47:16.670Z,100090.34
2023-05-21T17:49:44.905Z,100097.91
2023-05-21T17:52:13.078Z,100094.31
2023-05-21T17:54:41.213Z,100099.97
2023-05-21T17:57:09.432Z,100096.56
2023-05-21T17:59:40.314Z,100095.72
2023-05-21T18:02:09.024Z,100098.66
2023-05-21T18:04:39.084Z,100096.97
2023-05-21T18:07:07.352Z,100091.72
2023-05-21T18:09:38.835Z,100091.06
2023-05-21T18:12:09.108Z,100091.91
2023-05-21T18:14:37.560Z,100095.69
2023-05-21T18:17:06.255Z,100092.25
2023-05-21T18:19:34.604Z,100097.72
2023-05-21T18:22:05.228Z,100095.19
2023-05-21T18:24:33.435Z,100097.94
2023-05-21T18:27:02.109Z,100090.97
2023-05-21T18:29:30.986Z,100093.06
2023-05-21T18:31:59.468Z,100096.81
2023-05-21T18:34:28.406Z,100095.97
2023-05-21T18:36:58.946Z,100099.75
2023-05-21T18:39:29.657Z,100100.97
2023-05-21T18:42:12.016Z,100100.97
2023-05-21T18:44:41.196Z,100103.03
2023-05-21T18:47:09.970Z,100103.03
2023-05-21T18:49:38.484Z,100107.84
2023-05-21T18:52:07.764Z,100103.44
2023-05-21T18:54:37.763Z,100105.50
2023-05-21T18:57:06.586Z,100106.72
2023-05-21T18:59:35.075Z,100108.59
2023-05-21T19:02:04.694Z,100111.53
2023-05-21T19:04:36.536Z,100107.31
2023-05-21T19:07:05.530Z,100116.53
2023-05-21T19:09:34.200Z,100114.00
2023-05-21T19:12:04.703Z,100116.88
2023-05-21T19:14:33.420Z,100114.16
2023-05-21T19:17:02.124Z,100119.63
2023-05-21T19:19:31.025Z,100119.63
2023-05-21T19:22:02.402Z,100123.38
2023-05-21T19:24:31.104Z,100131.56
2023-05-21T19:27:00.798Z,100134.28
2023-05-21T19:29:30.919Z,100131.56
2023-05-21T19:31:59.537Z,100135.34
2023-05-21T19:34:28.261Z,100135.34
2023-05-21T19:36:56.984Z,100139.09
2023-05-21T19:39:25.665Z,100136.38
2023-05-21T19:41:59.391Z,100133.84
2023-05-21T19:44:28.437Z,100137.59
2023-05-21T19:46:58.391Z,100133.34
2023-05-21T19:49:27.002Z,100133.34
2023-05-21T19:51:56.254Z,100138.81
2023-05-21T19:54:27.522Z,100137.09
2023-05-21T19:56:56.867Z,100140.84
2023-05-21T19:59:26.264Z,100140.00
2023-05-21T20:01:56.529Z,100132.00
2023-05-21T20:04:26.519Z,100138.50
2023-05-21T20:06:55.096Z,100134.09
2023-05-21T20:09:23.603Z,100137.84
2023-05-21T20:11:52.734Z,100135.31
2023-05-21T20:14:20.886Z,100145.38
2023-05-21T20:16:49.270Z,100138.25
2023-05-21T20:19:17.652Z,100129.38
2023-05-21T20:21:49.159Z,100138.59
2023-05-21T20:24:17.425Z,100135.22
2023-05-21T20:26:46.330Z,100137.28
2023-05-21T20:29:14.513Z,100142.75
2023-05-21T20:31:43.122Z,100136.44
2023-05-21T20:34:12.350Z,100142.09
2023-05-21T20:36:41.502Z,100140.38
2023-05-21T20:39:14.400Z,100148.75
2023-05-21T20:41:44.703Z,100133.41
2023-05-21T20:44:16.822Z,100144.50
2023-05-21T20:46:46.372Z,100140.09
2023-05-21T20:49:15.179Z,100138.41
2023-05-21T20:51:43.346Z,100134.00
2023-05-21T20:54:13.021Z,100143.22
2023-05-21T20:56:42.796Z,100142.53
2023-05-21T20:59:12.002Z,100138.09
2023-05-21T21:01:40.749Z,100139.13
2023-05-21T21:04:12.173Z,100131.16
2023-05-21T21:06:40.569Z,100137.63
2023-05-21T21:09:09.360Z,100131.53
2023-05-21T21:11:39.052Z,100138.88
2023-05-21T21:14:07.242Z,100137.19
2023-05-21T21:16:35.557Z,100135.47
2023-05-21T21:19:04.039Z,100136.50
2023-05-21T21:21:32.691Z,100142.97
2023-05-21T21:24:00.816Z,100141.28
2023-05-21T21:26:28.966Z,100138.75
2023-05-21T21:28:59.513Z,100151.53
2023-05-21T21:31:27.702Z,100154.47
2023-05-21T21:33:55.995Z,100150.03
2023-05-21T21:36:24.182Z,100154.66
2023-05-21T21:38:52.293Z,100143.91
2023-05-21T21:41:21.895Z,100153.13
2023-05-21T21:43:51.613Z,100160.44
2023-05-21T21:46:21.158Z,100172.38
2023-05-21T21:48:49.281Z,100163.56
2023-05-21T21:51:17.532Z,100167.31
2023-05-21T21:53:45.675Z,100165.63
2023-05-21T21:56:13.827Z,100161.22
2023-05-21T21:58:41.943Z,100163.09
2023-05-21T22:01:10.074Z,100165.97
2023-05-21T22:03:39.644Z,100154.59
2023-05-21T22:06:08.082Z,100164.00
2023-05-21T22:08:36.215Z,100161.28
2023-05-21T22:11:04.344Z,100156.84
2023-05-21T22:13:32.948Z,100157.03
2023-05-21T22:16:02.066Z,100158.03
2023-05-21T22:18:40.364Z,100154.47
2023-05-21T22:21:14.257Z,100152.75
2023-05-21T22:23:42.623Z,100161.13
2023-05-21T22:26:10.961Z,100156.69
2023-05-21T22:28:39.110Z,100158.56
2023-05-21T22:31:07.372Z,100163.38
2023-05-21T22:33:36.721Z,100164.41
2023-05-21T22:36:05.423Z,100174.47
2023-05-21T22:38:34.938Z,100172.75
2023-05-21T22:41:06.611Z,100179.22
2023-05-21T22:43:35.382Z,100185.69
2023-05-21T22:46:03.782Z,100173.09
2023-05-21T22:48:32.030Z,100171.41
2023-05-21T22:51:01.700Z,100163.44
2023-05-21T22:53:29.965Z,100173.47
2023-05-21T22:55:59.521Z,100181.84
2023-05-21T22:58:27.669Z,100173.84
2023-05-21T23:00:55.815Z,100170.28
2023-05-21T23:03:23.924Z,100182.19
2023-05-21T23:05:52.525Z,100188.66
2023-05-21T23:08:20.813Z,100177.09
2023-05-21T23:10:49.022Z,100168.09
2023-05-21T23:13:18.800Z,100186.31
2023-05-21T23:15:48.626Z,100184.63
2023-05-21T23:18:17.313Z,100181.25
2023-05-21T23:20:45.658Z,100171.38
2023-05-21T23:23:13.754Z,100166.94
2023-05-21T23:25:41.848Z,100167.09
2023-05-21T23:28:10.292Z,100176.50
2023-05-21T23:30:40.108Z,100180.91
2023-05-21T23:33:08.599Z,100180.25
2023-05-21T23:35:37.131Z,100166.81
2023-05-21T23:38:05.200Z,100179.78
2023-05-21T23:40:33.302Z,100185.22
2023-05-21T23:43:01.636Z,100187.25
2023-05-21T23:45:29.832Z,100181.81
2023-05-21T23:47:59.390Z,100177.41
2023-05-21T23:50:27.593Z,100174.00
2023-05-21T23:52:55.895Z,100180.50
2023-05-21T23:55:24.021Z,100171.66
2023-05-21T23:57:52.167Z,100169.78
